Time;durP1;ratioP1;P1;durP2;ratioP2;P2;SDS_P1;SDS_P2;PMS_P1;PMS_P2;Temp;Humidity;BMP_temperature;BMP_pressure;BME280_temperature;BME280_humidity;BME280_pressure;Samples;Min_cycle;Max_cycle;Signal;HPM_P1;HPM_P2
2021/09/08 00:00:47;;;;;;;11.70;4.15;;;;;;;12.43;95.30;98232.50;5090197;28;20498;-79
2021/09/08 00:03:12;;;;;;;11.30;4.07;;;;;;;12.52;95.71;98246.34;5057212;28;20067;-79
2021/09/08 00:05:38;;;;;;;12.15;4.78;;;;;;;12.49;95.40;98247.38;5074109;28;20450;-79
2021/09/08 00:08:04;;;;;;;15.85;4.20;;;;;;;12.38;95.79;98239.09;5092268;28;20027;-79
2021/09/08 00:10:30;;;;;;;8.35;4.20;;;;;;;12.23;96.55;98238.16;5054221;28;20507;-79
2021/09/08 00:12:56;;;;;;;13.07;4.60;;;;;;;12.14;96.99;98244.06;5072325;28;20028;-79
2021/09/08 00:15:22;;;;;;;9.40;4.07;;;;;;;12.25;97.00;98249.66;5070961;28;20036;-79
2021/09/08 00:17:47;;;;;;;8.05;4.03;;;;;;;12.31;96.42;98253.81;5069570;28;20028;-78
2021/09/08 00:20:15;;;;;;;7.93;3.70;;;;;;;12.16;96.30;98250.19;5092197;28;20040;-78
2021/09/08 00:22:41;;;;;;;8.43;4.13;;;;;;;12.08;96.56;98252.44;5070606;28;20051;-79
2021/09/08 00:25:07;;;;;;;8.65;3.88;;;;;;;12.09;96.40;98254.16;5091916;28;20032;-79
2021/09/08 00:27:32;;;;;;;11.07;4.18;;;;;;;12.06;96.42;98248.97;5057428;28;20031;-79
2021/09/08 00:29:58;;;;;;;7.45;3.65;;;;;;;12.03;96.25;98238.41;5057023;28;20024;-79
2021/09/08 00:32:24;;;;;;;8.65;3.92;;;;;;;12.09;95.81;98248.81;5057371;28;20465;-78
2021/09/08 00:34:49;;;;;;;10.60;3.67;;;;;;;12.03;96.42;98238.41;5091807;28;20034;-79
2021/09/08 00:37:15;;;;;;;7.55;4.22;;;;;;;11.98;96.67;98245.88;5071160;28;20503;-79
2021/09/08 00:39:41;;;;;;;9.43;3.58;;;;;;;11.98;96.57;98248.56;5067034;28;20028;-79
2021/09/08 00:42:14;;;;;;;7.38;3.75;;;;;;;11.94;96.90;98238.94;5053536;28;20025;-78
2021/09/08 00:44:40;;;;;;;5.32;3.50;;;;;;;11.98;96.73;98253.91;5067003;28;20473;-79
2021/09/08 00:47:05;;;;;;;8.35;3.83;;;;;;;11.87;97.29;98251.81;5091388;28;20032;-79
2021/09/08 00:49:31;;;;;;;5.57;3.10;;;;;;;11.80;99.34;98260.31;5056653;28;20046;-81
2021/09/08 00:51:57;;;;;;;7.72;3.83;;;;;;;11.84;99.52;98269.91;5056805;28;20067;-77
2021/09/08 00:54:23;;;;;;;10.63;4.25;;;;;;;11.69;100.00;98243.94;5070377;28;20040;-78
2021/09/08 00:56:53;;;;;;;8.43;3.65;;;;;;;11.68;99.76;98247.56;5067867;28;20040;-78
2021/09/08 00:59:20;;;;;;;5.50;3.70;;;;;;;11.54;99.24;98239.38;5053298;28;20036;-77
2021/09/08 01:01:46;;;;;;;6.28;3.80;;;;;;;11.46;100.00;98257.72;5088256;28;20120;-78
2021/09/08 01:04:13;;;;;;;6.65;3.50;;;;;;;11.51;100.00;98252.94;5073628;28;20114;-77
2021/09/08 01:06:39;;;;;;;9.98;3.75;;;;;;;11.49;100.00;98245.00;5090625;28;20526;-78
2021/09/08 01:09:05;;;;;;;8.90;3.58;;;;;;;11.31;100.00;98233.50;5090170;28;20059;-78
2021/09/08 01:11:31;;;;;;;6.75;3.45;;;;;;;11.28;100.00;98233.66;5073437;28;20474;-78
2021/09/08 01:13:56;;;;;;;9.35;4.05;;;;;;;11.30;100.00;98247.81;5091656;28;20097;-78
2021/09/08 01:16:22;;;;;;;6.07;3.60;;;;;;;11.17;100.00;98219.97;5073598;28;20107;-78
2021/09/08 01:18:47;;;;;;;7.15;3.90;;;;;;;11.23;100.00;98240.19;5073438;28;20024;-78
2021/09/08 01:21:13;;;;;;;7.32;3.78;;;;;;;11.33;100.00;98252.13;5069932;28;20107;-78
2021/09/08 01:23:39;;;;;;;7.28;3.70;;;;;;;11.32;100.00;98248.59;5067869;28;20052;-78
2021/09/08 01:26:05;;;;;;;12.15;4.03;;;;;;;11.23;100.00;98230.34;5074036;28;20020;-79
2021/09/08 01:28:31;;;;;;;4.68;3.70;;;;;;;11.19;100.00;98244.88;5093960;28;20054;-78
2021/09/08 01:30:58;;;;;;;10.43;3.95;;;;;;;11.00;100.00;98211.09;5074526;28;20020;-78
2021/09/08 01:33:24;;;;;;;13.13;3.90;;;;;;;11.21;100.00;98247.44;5073369;28;20036;-78
2021/09/08 01:35:49;;;;;;;7.32;4.15;;;;;;;11.11;100.00;98241.72;5072898;28;20114;-78
2021/09/08 01:38:16;;;;;;;11.57;3.78;;;;;;;10.99;100.00;98237.00;5076467;28;20032;-78
2021/09/08 01:40:42;;;;;;;5.50;3.92;;;;;;;11.04;100.00;98248.34;5094286;28;20507;-78
2021/09/08 01:43:09;;;;;;;8.40;4.18;;;;;;;10.92;100.00;98242.78;5094503;28;20032;-79
2021/09/08 01:45:34;;;;;;;7.20;4.18;;;;;;;10.87;100.00;98237.63;5059595;28;20020;-78
2021/09/08 01:48:00;;;;;;;8.27;4.28;;;;;;;10.88;100.00;98245.59;5059317;28;20031;-78
2021/09/08 01:50:26;;;;;;;6.18;3.75;;;;;;;10.95;100.00;98243.44;5072990;28;20027;-79
2021/09/08 01:52:51;;;;;;;6.10;3.78;;;;;;;10.93;100.00;98231.97;5068987;28;20032;-79
2021/09/08 01:55:17;;;;;;;9.98;4.30;;;;;;;11.10;100.00;98255.19;5092863;28;20023;-78
2021/09/08 01:57:43;;;;;;;6.00;3.80;;;;;;;11.05;100.00;98225.09;5076110;28;20042;-78
2021/09/08 02:00:11;;;;;;;10.77;4.32;;;;;;;11.04;100.00;98229.59;5074754;28;20029;-78
2021/09/08 02:02:36;;;;;;;9.05;4.47;;;;;;;11.05;100.00;98235.81;5076067;28;20019;-78
2021/09/08 02:05:02;;;;;;;7.90;4.00;;;;;;;10.95;100.00;98214.00;5059406;28;20031;-78
2021/09/08 02:07:28;;;;;;;7.53;4.45;;;;;;;10.99;100.00;98228.97;5072547;28;20028;-78
2021/09/08 02:09:53;;;;;;;5.57;3.97;;;;;;;10.97;100.00;98238.91;5090250;28;20023;-78
2021/09/08 02:12:19;;;;;;;7.38;4.13;;;;;;;11.13;100.00;98247.88;5058803;28;20035;-78
2021/09/08 02:14:45;;;;;;;6.50;4.00;;;;;;;10.86;100.00;98228.75;5059086;28;20027;-78
2021/09/08 02:17:10;;;;;;;5.43;3.85;;;;;;;10.96;100.00;98242.50;5075814;28;20492;-78
2021/09/08 02:19:36;;;;;;;9.68;4.50;;;;;;;10.92;100.00;98243.59;5093794;28;20051;-78
2021/09/08 02:22:02;;;;;;;5.55;3.58;;;;;;;10.93;100.00;98250.69;5075368;28;20066;-78
2021/09/08 02:24:27;;;;;;;10.88;4.35;;;;;;;10.73;100.00;98238.38;5076288;28;20016;-79
2021/09/08 02:26:53;;;;;;;7.15;4.25;;;;;;;10.63;100.00;98221.06;5059950;28;20027;-77
2021/09/08 02:29:19;;;;;;;6.25;3.67;;;;;;;10.78;100.00;98232.78;5075728;28;20082;-79
2021/09/08 02:31:44;;;;;;;12.60;4.18;;;;;;;10.71;100.00;98216.16;5072118;28;20107;-77
2021/09/08 02:34:10;;;;;;;6.18;3.83;;;;;;;10.95;100.00;98245.28;5072374;28;20032;-79
2021/09/08 02:36:36;;;;;;;8.38;3.92;;;;;;;10.88;100.00;98250.09;5093790;28;20111;-78
2021/09/08 02:39:02;;;;;;;11.65;4.68;;;;;;;10.70;100.00;98221.59;5072478;28;20059;-79
2021/09/08 02:41:27;;;;;;;11.25;3.58;;;;;;;10.80;100.00;98217.50;5075524;28;20028;-79
2021/09/08 02:43:53;;;;;;;9.75;4.25;;;;;;;10.68;100.00;98197.59;5075358;28;20431;-79
2021/09/08 02:46:19;;;;;;;12.90;4.15;;;;;;;10.80;100.00;98226.38;5075414;28;20118;-79
2021/09/08 02:48:44;;;;;;;10.15;3.78;;;;;;;10.71;100.00;98216.16;5093586;28;20108;-79
2021/09/08 02:51:10;;;;;;;10.05;4.13;;;;;;;10.75;100.00;98219.53;5092903;28;20034;-78
2021/09/08 02:53:36;;;;;;;15.27;4.07;;;;;;;10.83;100.00;98225.34;5075466;28;20502;-79
2021/09/08 02:56:02;;;;;;;8.32;4.35;;;;;;;10.95;100.00;98230.06;5075443;28;20024;-78
2021/09/08 02:58:28;;;;;;;11.93;4.20;;;;;;;11.02;100.00;98242.19;5058817;28;20055;-78
2021/09/08 03:00:54;;;;;;;6.60;4.05;;;;;;;11.13;100.00;98239.84;5074858;28;20540;-78
2021/09/08 03:03:20;;;;;;;9.10;4.60;;;;;;;11.13;100.00;98228.25;5074780;28;20089;-78
2021/09/08 03:05:46;;;;;;;10.73;3.97;;;;;;;11.12;100.00;98227.38;5074876;28;20016;-79
2021/09/08 03:08:12;;;;;;;6.57;3.80;;;;;;;11.19;100.00;98222.56;5074698;28;20032;-78
2021/09/08 03:10:38;;;;;;;11.27;4.07;;;;;;;11.30;100.00;98230.88;5054535;28;20078;-78
2021/09/08 03:13:05;;;;;;;19.45;5.65;;;;;;;11.19;100.00;98227.91;5088294;28;20024;-78
2021/09/08 03:15:31;;;;;;;9.23;5.00;;;;;;;11.15;100.00;98216.50;5091701;28;20123;-79
2021/09/08 03:17:57;;;;;;;11.52;5.05;;;;;;;11.17;100.00;98230.66;5074522;28;20055;-79
2021/09/08 03:20:23;;;;;;;26.73;5.45;;;;;;;11.08;100.00;98219.56;5057469;28;20431;-79
2021/09/08 03:22:48;;;;;;;17.77;4.78;;;;;;;11.00;100.00;98217.31;5074499;28;20047;-79
2021/09/08 03:25:14;;;;;;;16.02;5.35;;;;;;;10.83;100.00;98210.16;5092491;28;20031;-79
2021/09/08 03:27:40;;;;;;;11.48;4.50;;;;;;;10.74;100.00;98220.47;5074358;28;20470;-79
2021/09/08 03:30:08;;;;;;;17.63;4.60;;;;;;;10.81;100.00;98232.59;5074709;28;20028;-79
2021/09/08 03:32:33;;;;;;;16.63;5.22;;;;;;;10.68;100.00;98231.50;5049764;28;20029;-78
2021/09/08 03:34:59;;;;;;;13.57;5.18;;;;;;;10.73;100.00;98240.19;5074031;28;20024;-79
2021/09/08 03:37:25;;;;;;;16.63;5.50;;;;;;;10.66;100.00;98247.66;5074124;28;20038;-78
2021/09/08 03:39:52;;;;;;;9.55;4.53;;;;;;;10.65;100.00;98245.03;5057453;28;20056;-79
2021/09/08 03:42:18;;;;;;;8.95;5.22;;;;;;;10.41;100.00;98222.22;5074101;28;20027;-79
2021/09/08 03:44:44;;;;;;;13.05;5.65;;;;;;;10.47;100.00;98236.16;5074298;28;20388;-78
2021/09/08 03:47:09;;;;;;;10.23;4.93;;;;;;;10.44;100.00;98232.75;5074571;28;20035;-79
2021/09/08 03:49:35;;;;;;;11.52;4.55;;;;;;;10.40;100.00;98232.03;5074277;28;20933;-78
2021/09/08 03:52:00;;;;;;;12.45;5.30;;;;;;;10.16;100.00;98227.91;5074302;28;20024;-78
2021/09/08 03:54:26;;;;;;;12.98;5.10;;;;;;;10.23;100.00;98242.72;5091860;28;20031;-78
2021/09/08 03:56:51;;;;;;;12.50;4.40;;;;;;;10.20;100.00;98238.41;5074286;28;20024;-78
2021/09/08 03:59:17;;;;;;;9.27;4.75;;;;;;;10.25;100.00;98254.19;5070881;28;20047;-77
2021/09/08 04:01:43;;;;;;;8.95;4.57;;;;;;;10.24;100.00;98250.66;5070506;28;20115;-78
2021/09/08 04:04:09;;;;;;;15.20;4.95;;;;;;;10.24;100.00;98253.31;5069621;28;20032;-78
2021/09/08 04:06:34;;;;;;;15.60;4.88;;;;;;;10.34;100.00;98259.09;5091667;28;20107;-78
2021/09/08 04:09:00;;;;;;;13.73;6.28;;;;;;;10.28;100.00;98243.34;5091752;28;20495;-78
2021/09/08 04:11:26;;;;;;;15.70;5.30;;;;;;;10.36;100.00;98245.66;5091800;28;20099;-78
2021/09/08 04:13:51;;;;;;;13.02;5.00;;;;;;;10.46;100.00;98247.78;5074171;28;20020;-79
2021/09/08 04:16:17;;;;;;;12.82;5.45;;;;;;;10.69;100.00;98263.53;5073638;28;20114;-79
2021/09/08 04:18:42;;;;;;;13.27;5.63;;;;;;;10.65;100.00;98245.91;5070975;28;20020;-79
2021/09/08 04:21:08;;;;;;;16.80;5.50;;;;;;;10.68;100.00;98235.06;5065984;28;20059;-78
2021/09/08 04:23:33;;;;;;;15.63;5.28;;;;;;;10.73;100.00;98250.88;5071878;28;20045;-79
2021/09/08 04:25:59;;;;;;;9.80;5.13;;;;;;;10.79;100.00;98243.41;5056878;28;20415;-78
2021/09/08 04:28:24;;;;;;;18.02;5.05;;;;;;;11.04;100.00;98261.75;5073474;28;20407;-79
2021/09/08 04:30:50;;;;;;;16.40;5.82;;;;;;;11.07;100.00;98245.50;5053248;28;20020;-79
2021/09/08 04:33:15;;;;;;;13.60;5.00;;;;;;;11.29;100.00;98256.78;5066450;28;20032;-78
2021/09/08 04:35:41;;;;;;;11.88;4.80;;;;;;;11.44;100.00;98269.34;5056227;28;20038;-78
2021/09/08 04:38:06;;;;;;;10.25;5.20;;;;;;;11.48;99.99;98262.03;5056681;28;20471;-78
2021/09/08 04:40:32;;;;;;;18.33;4.90;;;;;;;11.58;98.44;98257.91;5073284;28;20032;-79
2021/09/08 04:42:57;;;;;;;12.70;4.82;;;;;;;11.78;96.55;98254.19;5094124;28;20479;-77
2021/09/08 04:45:23;;;;;;;12.25;4.80;;;;;;;12.02;95.18;98284.97;5080279;28;20052;-78
2021/09/08 04:47:49;;;;;;;20.92;5.07;;;;;;;12.03;94.06;98256.34;5075846;28;20491;-76
2021/09/08 04:50:15;;;;;;;21.83;5.10;;;;;;;12.21;93.36;98271.41;5059127;28;20024;-75
2021/09/08 04:52:40;;;;;;;25.50;5.55;;;;;;;12.33;92.46;98279.63;5072882;28;20443;-79
2021/09/08 04:55:07;;;;;;;15.50;4.93;;;;;;;12.35;91.26;98268.78;5091130;28;20028;-79
2021/09/08 04:57:33;;;;;;;14.35;5.32;;;;;;;12.58;90.38;98283.56;5074353;28;20028;-78
2021/09/08 04:59:59;;;;;;;13.40;5.78;;;;;;;12.65;89.94;98291.16;5076940;28;20035;-77
2021/09/08 05:02:24;;;;;;;14.93;5.05;;;;;;;12.70;89.33;98281.03;5073501;28;20024;-78
2021/09/08 05:04:50;;;;;;;12.77;5.15;;;;;;;12.79;89.30;98293.91;5094772;28;20106;-78
2021/09/08 05:07:15;;;;;;;17.83;5.65;;;;;;;12.85;88.93;98290.00;5077635;28;20073;-78
2021/09/08 05:09:41;;;;;;;12.45;4.90;;;;;;;12.92;87.99;98281.47;5094557;28;20036;-78
2021/09/08 05:12:06;;;;;;;10.38;5.47;;;;;;;13.23;86.94;98293.09;5094604;28;20024;-79
2021/09/08 05:14:32;;;;;;;13.13;5.53;;;;;;;13.34;85.21;98280.75;5074399;28;20042;-78
2021/09/08 05:16:57;;;;;;;12.70;5.57;;;;;;;13.46;84.80;98285.38;5094862;28;20028;-78
2021/09/08 05:19:23;;;;;;;9.65;4.70;;;;;;;13.65;83.65;98290.47;5076386;28;20036;-78
2021/09/08 05:21:48;;;;;;;12.20;5.75;;;;;;;13.70;83.27;98276.72;5076336;28;20073;-78
2021/09/08 05:24:14;;;;;;;12.35;5.32;;;;;;;14.02;82.47;98289.88;5094500;28;20028;-78
2021/09/08 05:26:39;;;;;;;22.10;5.80;;;;;;;14.24;80.97;98297.44;5094540;28;20063;-78
2021/09/08 05:29:06;;;;;;;11.00;4.82;;;;;;;14.44;80.41;98299.72;5073182;28;20021;-80
2021/09/08 05:31:31;;;;;;;19.05;5.47;;;;;;;14.86;79.08;98292.47;5073475;28;20050;-78
2021/09/08 05:33:57;;;;;;;12.68;4.88;;;;;;;15.69;76.10;98301.00;5075799;28;20035;-78
2021/09/08 05:36:22;;;;;;;13.50;4.55;;;;;;;17.44;67.44;98291.56;5094117;28;20028;-79
2021/09/08 05:38:50;;;;;;;11.35;4.97;;;;;;;19.42;59.15;98298.75;5076060;28;20028;-81
2021/09/08 05:41:16;;;;;;;15.80;4.30;;;;;;;21.10;52.74;98282.78;5094230;28;20024;-79
2021/09/08 05:43:42;;;;;;;8.50;4.88;;;;;;;21.86;49.27;98296.31;5074450;28;20039;-79
2021/09/08 05:46:07;;;;;;;15.02;4.72;;;;;;;22.00;48.33;98279.50;5094372;28;20101;-79
2021/09/08 05:48:36;;;;;;;17.70;5.18;;;;;;;22.91;46.45;98295.03;5056246;28;20094;-79
2021/09/08 05:51:02;;;;;;;12.68;5.05;;;;;;;23.02;45.54;98299.41;5076271;28;20026;-79
2021/09/08 05:53:27;;;;;;;20.52;4.75;;;;;;;23.74;44.29;98286.47;5075777;28;20028;-80
2021/09/08 05:55:55;;;;;;;12.95;4.32;;;;;;;24.49;42.34;98294.97;5075829;28;20126;-79
2021/09/08 05:58:20;;;;;;;15.18;5.35;;;;;;;25.09;40.46;98277.44;5072804;28;20419;-79
2021/09/08 06:00:46;;;;;;;18.40;5.25;;;;;;;25.08;40.42;98281.19;5073266;28;20029;-80
2021/09/08 06:03:11;;;;;;;17.92;5.72;;;;;;;24.59;41.50;98285.63;5075970;28;20048;-79
2021/09/08 06:05:37;;;;;;;13.45;4.65;;;;;;;24.57;41.24;98286.81;5058522;28;20419;-79
2021/09/08 06:08:03;;;;;;;10.60;4.70;;;;;;;24.66;41.05;98286.69;5093125;28;20028;-79
2021/09/08 06:10:28;;;;;;;7.80;4.38;;;;;;;23.85;42.11;98279.88;5075394;28;20035;-79
2021/09/08 06:12:54;;;;;;;14.60;5.30;;;;;;;23.29;43.46;98285.69;5075391;28;20097;-79
2021/09/08 06:15:20;;;;;;;10.82;4.70;;;;;;;23.23;43.90;98281.72;5072131;28;20024;-79
2021/09/08 06:17:46;;;;;;;9.77;4.40;;;;;;;23.72;43.53;98298.56;5091378;28;20156;-80
2021/09/08 06:20:12;;;;;;;13.75;4.15;;;;;;;23.79;42.97;98294.19;5071648;28;20096;-79
2021/09/08 06:22:37;;;;;;;20.85;5.53;;;;;;;24.40;41.58;98291.34;5069086;28;20049;-80
2021/09/08 06:25:03;;;;;;;34.15;6.03;;;;;;;24.98;40.66;98280.47;5093409;28;20024;-79
2021/09/08 06:27:29;;;;;;;5.32;4.00;;;;;;;26.03;38.53;98264.09;5075213;28;20510;-80
2021/09/08 06:29:54;;;;;;;7.85;4.30;;;;;;;27.03;37.19;98288.16;5074665;28;20028;-79
2021/09/08 06:32:20;;;;;;;12.43;3.88;;;;;;;28.57;34.51;98278.63;5054915;28;20033;-79
2021/09/08 06:34:47;;;;;;;8.13;3.70;;;;;;;28.87;33.63;98272.06;5090924;28;20175;-79
2021/09/08 06:37:13;;;;;;;5.40;3.40;;;;;;;29.48;32.42;98267.91;5093002;28;20031;-82
2021/09/08 06:39:39;;;;;;;9.82;3.42;;;;;;;29.17;32.56;98264.56;5074704;28;20028;-80
2021/09/08 06:42:05;;;;;;;9.75;3.58;;;;;;;28.79;33.21;98280.44;5071387;28;20021;-81
2021/09/08 06:44:31;;;;;;;8.23;3.90;;;;;;;29.11;32.94;98290.16;5067128;28;20017;-80
2021/09/08 06:46:56;;;;;;;12.88;3.60;;;;;;;29.71;32.12;98281.50;5073670;28;20024;-81
2021/09/08 06:49:22;;;;;;;14.43;4.55;;;;;;;28.13;34.30;98290.44;5071360;28;20396;-79
2021/09/08 06:51:47;;;;;;;5.88;3.97;;;;;;;28.30;34.73;98300.22;5090426;28;20020;-79
2021/09/08 06:54:13;;;;;;;6.43;3.72;;;;;;;28.91;33.27;98300.94;5074318;28;20107;-80
2021/09/08 06:56:39;;;;;;;13.02;4.65;;;;;;;28.61;33.59;98290.97;5074519;28;20020;-79
2021/09/08 06:59:04;;;;;;;13.88;3.75;;;;;;;28.73;33.36;98298.56;5092623;28;20023;-80
2021/09/08 07:01:30;;;;;;;10.73;3.92;;;;;;;29.21;32.97;98294.31;5054056;28;20033;-80
2021/09/08 07:03:55;;;;;;;8.95;3.28;;;;;;;29.75;32.35;98296.63;5071859;28;20115;-78
2021/09/08 07:06:23;;;;;;;8.80;3.33;;;;;;;29.79;31.80;98298.78;5092432;28;20024;-82
2021/09/08 07:08:49;;;;;;;7.20;3.50;;;;;;;30.13;30.65;98270.44;5072022;28;20047;-83
2021/09/08 07:11:15;;;;;;;12.13;4.10;;;;;;;30.47;30.75;98286.22;5070937;28;20028;-82
2021/09/08 07:13:41;;;;;;;16.58;3.33;;;;;;;30.07;30.95;98285.03;5088848;28;20168;-81
2021/09/08 07:16:06;;;;;;;8.63;2.80;;;;;;;29.36;31.75;98289.66;5070700;28;20503;-80
2021/09/08 07:18:32;;;;;;;4.28;3.00;;;;;;;29.27;32.18;98295.47;5066005;28;20031;-79
2021/09/08 07:20:58;;;;;;;7.22;3.28;;;;;;;29.86;30.91;98287.84;5089986;28;20166;-80
2021/09/08 07:23:24;;;;;;;5.00;3.30;;;;;;;30.39;30.48;98283.63;5092102;28;20105;-80
2021/09/08 07:25:50;;;;;;;6.75;3.15;;;;;;;30.34;30.49;98284.19;5092107;28;20032;-79
2021/09/08 07:28:15;;;;;;;4.93;2.90;;;;;;;30.64;29.84;98307.78;5091939;28;20032;-79
2021/09/08 07:30:41;;;;;;;7.90;2.97;;;;;;;30.75;29.93;98295.31;5070460;28;20103;-79
2021/09/08 07:33:07;;;;;;;8.25;2.97;;;;;;;31.15;29.56;98297.25;5091430;28;20031;-80
2021/09/08 07:35:32;;;;;;;5.30;2.60;;;;;;;31.14;29.18;98294.69;5092052;28;20128;-79
2021/09/08 07:38:00;;;;;;;3.92;2.42;;;;;;;31.57;28.56;98298.03;5071941;28;20031;-80
2021/09/08 07:40:26;;;;;;;4.38;2.50;;;;;;;31.83;28.08;98294.47;5074031;28;20059;-80
2021/09/08 07:42:52;;;;;;;12.50;2.78;;;;;;;31.51;28.02;98298.88;5073554;28;20034;-79
2021/09/08 07:45:18;;;;;;;5.18;2.42;;;;;;;32.00;27.23;98277.22;5091786;28;20023;-79
2021/09/08 07:47:43;;;;;;;8.23;2.35;;;;;;;31.63;27.33;98278.69;5070419;28;20032;-79
2021/09/08 07:50:09;;;;;;;7.35;2.10;;;;;;;32.17;26.49;98278.53;5090955;28;20020;-79
2021/09/08 07:52:35;;;;;;;6.13;2.50;;;;;;;31.80;27.46;98279.13;5073786;28;20028;-79
2021/09/08 07:55:02;;;;;;;5.18;2.40;;;;;;;32.48;26.79;98288.94;5073307;28;20039;-81
2021/09/08 07:57:28;;;;;;;6.90;2.47;;;;;;;32.88;25.83;98286.97;5073610;28;20433;-82
2021/09/08 07:59:53;;;;;;;3.85;2.50;;;;;;;32.77;25.48;98286.75;5070426;28;20107;-80
2021/09/08 08:02:19;;;;;;;5.43;2.45;;;;;;;32.50;25.76;98270.16;5091966;28;20023;-80
2021/09/08 08:04:44;;;;;;;7.05;2.95;;;;;;;32.52;25.78;98278.25;5070328;28;20024;-79
2021/09/08 08:07:10;;;;;;;12.60;3.00;;;;;;;31.97;25.91;98251.88;5090704;28;20043;-79
2021/09/08 08:09:35;;;;;;;13.85;2.85;;;;;;;31.67;26.55;98274.44;5091570;28;20020;-79
2021/09/08 08:12:01;;;;;;;12.15;2.60;;;;;;;31.87;26.64;98263.34;5091404;28;20020;-79
2021/09/08 08:14:27;;;;;;;9.73;2.97;;;;;;;32.47;25.97;98278.06;5091352;28;20028;-79
2021/09/08 08:16:53;;;;;;;9.15;2.83;;;;;;;32.97;25.20;98273.69;5073252;28;20112;-79
2021/09/08 08:19:19;;;;;;;6.15;2.05;;;;;;;33.08;24.75;98289.66;5073736;28;20020;-79
2021/09/08 08:21:45;;;;;;;5.82;2.20;;;;;;;32.70;25.07;98273.75;5073179;28;20031;-79
2021/09/08 08:24:10;;;;;;;7.63;2.20;;;;;;;32.26;25.04;98261.69;5073434;28;20119;-80
2021/09/08 08:26:36;;;;;;;13.25;2.67;;;;;;;33.45;24.69;98277.75;5073112;28;20039;-80
2021/09/08 08:29:01;;;;;;;4.30;2.00;;;;;;;32.98;23.96;98259.59;5090969;28;20020;-81
2021/09/08 08:31:28;;;;;;;6.05;2.42;;;;;;;32.74;24.94;98265.88;5074837;28;20016;-80
2021/09/08 08:33:53;;;;;;;5.28;2.72;;;;;;;32.61;24.62;98255.66;5077797;28;20032;-80
2021/09/08 08:36:19;;;;;;;12.70;2.67;;;;;;;32.28;25.04;98254.00;5095067;28;20108;-80
2021/09/08 08:38:44;;;;;;;9.77;2.90;;;;;;;33.11;24.78;98265.13;5077362;28;20078;-78
2021/09/08 08:41:10;;;;;;;10.85;2.72;;;;;;;33.66;24.15;98266.31;5095258;28;20028;-80
2021/09/08 08:43:37;;;;;;;4.75;2.35;;;;;;;34.19;22.88;98257.59;5095530;28;20028;-79
2021/09/08 08:46:03;;;;;;;6.22;2.50;;;;;;;34.05;23.45;98258.78;5077279;28;20404;-79
2021/09/08 08:48:29;;;;;;;3.40;2.10;;;;;;;34.54;22.65;98246.78;5073500;28;20090;-80
2021/09/08 08:50:55;;;;;;;2.75;2.28;;;;;;;33.95;22.71;98242.63;5073513;28;20471;-80
2021/09/08 08:53:21;;;;;;;4.72;2.10;;;;;;;31.80;25.42;98251.44;5060155;28;20051;-79
2021/09/08 08:55:46;;;;;;;4.78;2.00;;;;;;;31.87;25.46;98243.16;5077074;28;20051;-79
2021/09/08 08:58:12;;;;;;;7.82;2.30;;;;;;;32.23;24.24;98240.81;5094612;28;20113;-79
2021/09/08 09:00:39;;;;;;;5.90;2.60;;;;;;;32.13;24.70;98240.41;5094895;28;20074;-80
2021/09/08 09:03:05;;;;;;;6.30;2.53;;;;;;;33.86;23.75;98243.97;5077036;28;20028;-79
2021/09/08 09:05:33;;;;;;;6.30;2.30;;;;;;;34.68;22.27;98246.44;5060194;28;20020;-80
2021/09/08 09:07:59;;;;;;;6.10;2.25;;;;;;;35.15;21.70;98238.41;5094931;28;20024;-80
2021/09/08 09:10:25;;;;;;;12.25;2.45;;;;;;;35.36;21.56;98216.47;5076582;28;20027;-79
2021/09/08 09:12:51;;;;;;;12.10;3.33;;;;;;;35.85;21.27;98229.22;5094542;28;20030;-79
2021/09/08 09:15:18;;;;;;;8.57;2.40;;;;;;;36.06;20.92;98225.03;5076245;28;20495;-79
2021/09/08 09:17:45;;;;;;;6.55;2.50;;;;;;;35.70;21.25;98217.69;5076591;28;20388;-80
2021/09/08 09:20:20;;;;;;;7.20;2.20;;;;;;;34.16;22.50;98217.25;5059506;28;20487;-80
2021/09/08 09:22:56;;;;;;;6.65;2.15;;;;;;;34.14;22.74;98230.53;5069435;28;20048;-80
2021/09/08 09:25:36;;;;;;;4.50;2.13;;;;;;;34.26;22.47;98227.84;5072145;28;20412;-80
2021/09/08 09:28:04;;;;;;;3.88;2.00;;;;;;;33.94;22.11;98221.47;5073978;28;20048;-80
2021/09/08 09:30:33;;;;;;;4.60;1.75;;;;;;;33.46;22.93;98226.72;5073021;28;20063;-79
2021/09/08 09:33:00;;;;;;;8.60;2.63;;;;;;;33.65;23.00;98216.59;5072873;28;20027;-79
2021/09/08 09:35:30;;;;;;;8.65;2.20;;;;;;;32.25;24.43;98194.34;5074054;28;20032;-79
2021/09/08 09:37:58;;;;;;;6.82;2.30;;;;;;;29.94;27.15;98207.66;5074025;28;20032;-79
2021/09/08 09:40:26;;;;;;;2.90;2.05;;;;;;;29.40;28.72;98227.56;5072358;28;20029;-80
2021/09/08 09:42:52;;;;;;;7.35;2.53;;;;;;;29.99;28.04;98217.03;5071896;28;20035;-79
2021/09/08 09:45:18;;;;;;;10.85;2.90;;;;;;;30.83;27.36;98223.28;5072512;28;20039;-78
2021/09/08 09:47:45;;;;;;;6.85;2.55;;;;;;;31.15;27.18;98233.66;5069362;28;20059;-79
2021/09/08 09:50:15;;;;;;;7.35;2.50;;;;;;;30.33;27.55;98204.31;5069647;28;20183;-78
2021/09/08 09:52:40;;;;;;;4.60;2.20;;;;;;;30.38;27.57;98216.47;5052333;28;20061;-80
2021/09/08 09:55:07;;;;;;;3.20;2.03;;;;;;;29.46;29.39;98217.63;5048818;28;20025;-81
2021/09/08 09:57:33;;;;;;;5.75;2.67;;;;;;;30.34;28.50;98223.44;5072466;28;20112;-80
2021/09/08 09:59:59;;;;;;;4.10;1.90;;;;;;;29.11;29.02;98205.56;5072165;28;20472;-78
2021/09/08 10:02:26;;;;;;;5.57;2.40;;;;;;;28.73;30.03;98220.59;5071120;28;20029;-80
2021/09/08 10:04:55;;;;;;;6.32;2.65;;;;;;;27.30;31.98;98226.31;5068521;28;20024;-80
2021/09/08 10:07:25;;;;;;;7.38;2.33;;;;;;;27.24;32.09;98233.41;5051915;28;20145;-80
2021/09/08 10:09:56;;;;;;;3.35;2.10;;;;;;;28.17;31.66;98228.50;5073580;28;20033;-80
2021/09/08 10:12:24;;;;;;;15.27;2.22;;;;;;;29.47;29.91;98211.91;5071875;28;20028;-79
2021/09/08 10:14:50;;;;;;;9.20;2.80;;;;;;;30.59;27.72;98215.53;5072521;28;20035;-79
2021/09/08 10:17:19;;;;;;;3.92;2.22;;;;;;;30.88;27.52;98195.91;5071818;28;20039;-78
2021/09/08 10:19:45;;;;;;;8.27;2.30;;;;;;;30.94;27.65;98197.88;5068371;28;20033;-79
2021/09/08 10:22:13;;;;;;;11.88;2.55;;;;;;;31.13;26.96;98202.56;5071334;28;20028;-80
2021/09/08 10:24:48;;;;;;;3.40;2.13;;;;;;;30.27;26.98;98186.63;5075697;28;20023;-79
2021/09/08 10:27:28;;;;;;;3.85;2.22;;;;;;;28.87;28.42;98192.16;5093250;28;20107;-77
2021/09/08 10:29:54;;;;;;;3.60;2.30;;;;;;;28.08;29.46;98184.75;5075188;28;20528;-78
2021/09/08 10:32:21;;;;;;;5.85;2.30;;;;;;;29.24;28.47;98189.22;5074751;28;20020;-78
2021/09/08 10:34:48;;;;;;;6.82;2.30;;;;;;;30.36;27.83;98207.53;5092940;28;20085;-79
2021/09/08 10:37:15;;;;;;;7.55;2.40;;;;;;;31.17;26.34;98195.56;5071829;28;20035;-82
2021/09/08 10:39:41;;;;;;;6.63;2.45;;;;;;;32.07;25.51;98200.56;5075729;28;20028;-80
2021/09/08 10:42:07;;;;;;;6.05;2.55;;;;;;;32.28;24.65;98176.44;5060925;28;20031;-80
2021/09/08 10:44:45;;;;;;;9.75;2.30;;;;;;;31.23;25.53;98176.44;5060623;28;20033;-80
2021/09/08 10:47:12;;;;;;;4.43;2.35;;;;;;;30.94;26.40;98177.63;5071223;28;20036;-81
2021/09/08 10:49:40;;;;;;;6.90;2.55;;;;;;;31.16;25.96;98187.50;5074012;28;20024;-76
2021/09/08 10:52:06;;;;;;;4.15;2.30;;;;;;;31.26;25.24;98184.31;5092771;28;20081;-81
2021/09/08 10:54:32;;;;;;;4.93;2.10;;;;;;;29.75;26.72;98181.59;5091988;28;20032;-80
2021/09/08 10:56:58;;;;;;;4.93;2.20;;;;;;;28.44;28.82;98197.53;5053817;28;20032;-79
2021/09/08 10:59:24;;;;;;;5.13;2.20;;;;;;;30.00;27.58;98182.00;5070870;28;20028;-80
2021/09/08 11:01:51;;;;;;;4.82;2.13;;;;;;;31.20;25.70;98182.38;5071525;28;20039;-80
2021/09/08 11:04:17;;;;;;;3.80;2.10;;;;;;;33.29;23.30;98183.09;5089845;28;20085;-81
2021/09/08 11:06:48;;;;;;;3.95;1.85;;;;;;;34.07;22.63;98167.72;5071320;28;20020;-80
2021/09/08 11:09:15;;;;;;;6.17;2.20;;;;;;;32.96;24.01;98169.38;5089560;28;20514;-80
2021/09/08 11:11:48;;;;;;;9.25;2.60;;;;;;;32.87;24.38;98173.47;5071293;28;20023;-80
2021/09/08 11:14:15;;;;;;;7.80;2.50;;;;;;;33.95;22.96;98170.41;5089424;28;20392;-81
2021/09/08 11:16:41;;;;;;;8.18;2.55;;;;;;;33.14;23.98;98156.50;5070968;28;20036;-86
2021/09/08 11:19:07;;;;;;;3.58;2.30;;;;;;;32.77;24.47;98165.63;5072122;28;20031;-81
2021/09/08 11:21:33;;;;;;;4.15;2.05;;;;;;;32.48;25.09;98161.47;5054982;28;20028;-79